Time;durP1;ratioP1;P1;durP2;ratioP2;P2;SDS_P1;SDS_P2;PMS_P1;PMS_P2;Temp;Humidity;BMP_temperature;BMP_pressure;BME280_temperature;BME280_humidity;BME280_pressure;Samples;Min_cycle;Max_cycle;Signal;HPM_P1;HPM_P2
2024/02/05 00:01:19;;;;;;;0.43;0.30;;;9.80;99.90;9.70;99997.00;;;;4909199;28;122926;-68
2024/02/05 00:03:45;;;;;;;0.30;0.30;;;9.80;99.90;9.70;99998.00;;;;4898252;28;120122;-69
2024/02/05 00:06:13;;;;;;;0.23;0.20;;;9.80;99.90;9.70;99994.00;;;;4896253;28;109187;-70
2024/02/05 00:08:39;;;;;;;1.10;0.27;;;10.40;99.90;9.70;99998.00;;;;4895616;28;92047;-68
2024/02/05 00:11:05;;;;;;;0.37;0.20;;;9.90;99.90;9.80;100006.00;;;;4894711;28;106011;-69
2024/02/05 00:13:32;;;;;;;0.30;0.20;;;9.80;99.90;9.80;99991.00;;;;4892036;28;106557;-70
2024/02/05 00:15:58;;;;;;;0.23;0.23;;;9.80;99.90;9.80;99985.00;;;;4896990;28;101391;-70
2024/02/05 00:18:26;;;;;;;0.10;0.10;;;9.90;99.90;9.80;99987.00;;;;4906801;28;109892;-70
2024/02/05 00:20:52;;;;;;;0.27;0.20;;;9.90;99.90;9.80;99986.00;;;;4905936;28;94531;-70
2024/02/05 00:23:18;;;;;;;0.20;0.20;;;9.90;99.90;9.80;99986.00;;;;4910496;28;114171;-68
2024/02/05 00:25:44;;;;;;;0.10;0.10;;;9.90;99.90;9.80;99988.00;;;;4890223;28;97829;-69
2024/02/05 00:28:13;;;;;;;1.03;0.40;;;9.90;99.90;9.80;99979.00;;;;4893051;28;108976;-69
2024/02/05 00:30:38;;;;;;;0.30;0.30;;;9.90;99.90;9.80;99980.00;;;;4893969;28;112405;-69
2024/02/05 00:33:05;;;;;;;0.83;0.20;;;9.90;99.90;9.80;99993.00;;;;4895120;28;120500;-67
2024/02/05 00:35:31;;;;;;;0.20;0.20;;;9.90;99.90;9.80;99987.00;;;;4895073;28;93322;-68
2024/02/05 00:37:58;;;;;;;0.90;0.30;;;9.90;99.90;9.80;99976.00;;;;4893065;28;106471;-69
2024/02/05 00:40:23;;;;;;;0.20;0.20;;;9.90;99.90;9.80;99976.00;;;;4891641;28;93982;-69
2024/02/05 00:42:49;;;;;;;0.10;0.10;;;9.90;99.90;9.80;99977.00;;;;4896166;28;93716;-69
2024/02/05 00:45:16;;;;;;;0.20;0.20;;;9.90;99.90;9.80;99977.00;;;;4895986;28;92822;-71
2024/02/05 00:47:41;;;;;;;0.23;0.17;;;10.00;99.90;9.80;99979.00;;;;4896522;28;93236;-70
2024/02/05 00:50:09;;;;;;;0.20;0.20;;;9.90;99.90;9.80;99972.00;;;;4888934;28;121615;-69
2024/02/05 00:52:35;;;;;;;0.10;0.10;;;9.90;99.90;9.80;99995.00;;;;4895765;28;93780;-71
2024/02/05 00:55:01;;;;;;;0.10;0.10;;;9.90;99.90;9.90;99972.00;;;;4896920;28;107209;-70
2024/02/05 00:57:29;;;;;;;0.57;0.20;;;10.00;99.90;9.80;99968.00;;;;4898142;28;92378;-69
2024/02/05 01:00:03;;;;;;;0.20;0.20;;;9.90;99.90;9.80;99977.00;;;;4904764;28;93152;-70
2024/02/05 01:02:29;;;;;;;0.10;0.10;;;9.90;99.90;9.80;99982.00;;;;4893338;28;92935;-69
2024/02/05 01:04:56;;;;;;;0.20;0.10;;;9.90;99.90;9.80;99999.00;;;;4893059;28;109590;-69
2024/02/05 01:07:21;;;;;;;0.20;0.20;;;10.00;99.90;9.80;100001.00;;;;4897698;28;93132;-69
2024/02/05 01:09:47;;;;;;;0.53;0.20;;;10.00;99.90;9.80;99976.00;;;;4892523;28;123510;-69
2024/02/05 01:12:13;;;;;;;0.37;0.27;;;9.90;99.90;9.90;99968.00;;;;4894352;28;121242;-69
2024/02/05 01:14:38;;;;;;;0.20;0.20;;;10.00;99.90;9.80;99982.00;;;;4893921;28;93169;-68
2024/02/05 01:17:05;;;;;;;0.10;0.10;;;9.90;99.90;9.80;99991.00;;;;4895446;28;109861;-68
2024/02/05 01:19:31;;;;;;;0.10;0.10;;;9.90;99.90;9.80;99992.00;;;;4896779;28;94323;-69
2024/02/05 01:21:57;;;;;;;0.10;0.10;;;9.90;99.90;9.80;99963.00;;;;4893740;28;122042;-69
2024/02/05 01:24:23;;;;;;;1.00;0.23;;;9.90;99.90;9.80;99976.00;;;;4896369;28;92873;-69
2024/02/05 01:26:48;;;;;;;0.33;0.20;;;9.90;99.90;9.80;99969.00;;;;4892519;28;109170;-70
2024/02/05 01:29:14;;;;;;;0.30;0.23;;;9.90;99.90;9.80;99976.00;;;;4892623;28;123149;-68
2024/02/05 01:31:43;;;;;;;0.20;0.20;;;10.00;99.90;9.80;99968.00;;;;4896503;28;123542;-69
2024/02/05 01:34:09;;;;;;;0.10;0.10;;;10.00;99.90;9.80;99984.00;;;;4895062;28;92723;-69
2024/02/05 01:36:35;;;;;;;0.27;0.27;;;9.90;99.90;9.80;99963.00;;;;4897309;28;102525;-70
2024/02/05 01:39:01;;;;;;;0.10;0.10;;;9.90;99.90;9.80;99956.00;;;;4894667;28;122523;-69
2024/02/05 01:41:26;;;;;;;0.17;0.17;;;9.90;99.90;9.80;99970.00;;;;4891967;28;93110;-70
2024/02/05 01:43:52;;;;;;;0.43;0.20;;;9.90;99.90;9.80;99959.00;;;;4890098;28;110366;-70
2024/02/05 01:46:22;;;;;;;1.37;0.23;;;10.00;99.90;9.80;99956.00;;;;4895181;28;107923;-70
2024/02/05 01:48:57;;;;;;;0.07;0.07;;;9.90;99.90;9.80;99964.00;;;;4892433;28;122872;-70
2024/02/05 01:51:24;;;;;;;0.10;0.10;;;9.90;99.90;9.80;99964.00;;;;4887076;28;115187;-69
2024/02/05 01:53:53;;;;;;;0.00;0.00;;;9.90;99.90;9.80;99960.00;;;;4898408;28;94027;-69
2024/02/05 01:56:25;;;;;;;0.00;0.00;;;9.90;99.90;9.80;99944.00;;;;4909908;28;94065;-68
2024/02/05 01:58:51;;;;;;;0.00;0.00;;;9.90;99.90;9.80;99954.00;;;;4897467;28;115407;-69
2024/02/05 02:01:18;;;;;;;0.00;0.00;;;9.90;99.90;9.80;99954.00;;;;4894995;28;121703;-69
2024/02/05 02:03:46;;;;;;;0.00;0.00;;;9.90;99.90;9.80;99934.00;;;;4894541;28;108820;-67
2024/02/05 02:06:12;;;;;;;0.00;0.00;;;9.90;99.90;9.80;99958.00;;;;4897073;28;107708;-70
2024/02/05 02:08:38;;;;;;;0.00;0.00;;;9.90;99.90;9.80;99953.00;;;;4900094;28;122242;-68
2024/02/05 02:11:04;;;;;;;0.20;0.20;;;9.90;99.90;9.80;99964.00;;;;4897263;28;123611;-69
2024/02/05 02:13:30;;;;;;;0.00;0.00;;;9.80;99.90;9.80;99954.00;;;;4896466;28;92984;-67
2024/02/05 02:15:57;;;;;;;0.00;0.00;;;9.90;99.90;9.80;99958.00;;;;4896066;28;97097;-69
2024/02/05 02:18:25;;;;;;;0.00;0.00;;;9.90;99.90;9.80;99968.00;;;;4890181;28;93868;-73
2024/02/05 02:20:52;;;;;;;0.00;0.00;;;9.90;99.90;9.80;99958.00;;;;4896332;28;93887;-69
2024/02/05 02:23:29;;;;;;;0.00;0.00;;;9.90;99.90;9.80;99954.00;;;;4894390;28;93011;-69
2024/02/05 02:25:55;;;;;;;0.00;0.00;;;9.90;99.90;9.80;99952.00;;;;4898907;28;93917;-69
2024/02/05 02:28:22;;;;;;;0.00;0.00;;;9.90;99.90;9.80;99956.00;;;;4899778;28;114076;-68
2024/02/05 02:30:49;;;;;;;0.00;0.00;;;9.90;99.90;9.80;99956.00;;;;4897324;28;114261;-69
2024/02/05 02:33:34;;;;;;;0.00;0.00;;;9.90;99.90;9.80;99951.00;;;;4896975;28;93009;-68
2024/02/05 02:36:08;;;;;;;0.00;0.00;;;9.90;99.90;9.80;99949.00;;;;4909161;28;97915;-69
2024/02/05 02:39:05;;;;;;;0.00;0.00;;;10.00;99.90;9.80;99955.00;;;;4915325;28;93301;-67
2024/02/05 02:41:36;;;;;;;0.00;0.00;;;10.00;99.90;9.80;99955.00;;;;4916241;28;93192;-69
2024/02/05 02:44:02;;;;;;;0.00;0.00;;;9.90;99.90;9.80;99963.00;;;;4894970;28;93911;-67
2024/02/05 02:46:29;;;;;;;0.00;0.00;;;9.90;99.90;9.80;99964.00;;;;4908421;28;93080;-67
2024/02/05 02:48:55;;;;;;;0.00;0.00;;;10.00;99.90;9.90;99949.00;;;;4911073;28;94043;-68
2024/02/05 02:51:22;;;;;;;0.00;0.00;;;9.90;99.90;9.80;99945.00;;;;4893712;28;109228;-68
2024/02/05 02:53:48;;;;;;;0.00;0.00;;;9.90;99.90;9.80;99943.00;;;;4893152;28;93233;-68
2024/02/05 02:56:14;;;;;;;0.00;0.00;;;9.90;99.90;9.80;99960.00;;;;4894805;28;100895;-68
2024/02/05 02:58:40;;;;;;;0.00;0.00;;;10.00;99.90;9.80;99954.00;;;;4895754;28;122900;-67
2024/02/05 03:01:05;;;;;;;0.00;0.00;;;9.90;99.90;9.80;99957.00;;;;4896936;28;92685;-69
2024/02/05 03:03:31;;;;;;;0.00;0.00;;;9.90;99.90;9.80;99953.00;;;;4898686;28;109491;-68
2024/02/05 03:05:57;;;;;;;0.00;0.00;;;10.00;99.90;9.80;99952.00;;;;4898822;28;110302;-67
2024/02/05 03:08:23;;;;;;;0.00;0.00;;;10.00;99.90;9.80;99940.00;;;;4895677;28;112570;-68
2024/02/05 03:10:49;;;;;;;0.00;0.00;;;10.00;99.90;9.80;99952.00;;;;4896808;28;116268;-69
2024/02/05 03:13:16;;;;;;;0.00;0.00;;;9.90;99.90;9.80;99961.00;;;;4893537;28;99599;-69
2024/02/05 03:15:42;;;;;;;0.00;0.00;;;10.00;99.90;9.80;99945.00;;;;4896186;28;92833;-70
2024/02/05 03:18:10;;;;;;;0.00;0.00;;;10.00;99.90;9.90;99968.00;;;;4894659;28;106163;-69
2024/02/05 03:20:41;;;;;;;0.00;0.00;;;10.00;99.90;9.80;99951.00;;;;4897301;28;105553;-68
2024/02/05 03:23:11;;;;;;;0.00;0.00;;;10.00;99.90;9.80;99951.00;;;;4891708;28;92870;-70
2024/02/05 03:25:38;;;;;;;0.00;0.00;;;10.60;99.90;9.80;99966.00;;;;4912276;28;92270;-69
2024/02/05 03:28:04;;;;;;;0.00;0.00;;;9.90;99.90;9.80;99953.00;;;;4890377;28;95234;-68
2024/02/05 03:30:33;;;;;;;0.00;0.00;;;9.90;99.90;9.80;99968.00;;;;4895864;28;93126;-68
2024/02/05 03:33:01;;;;;;;0.00;0.00;;;9.90;99.90;9.80;99959.00;;;;4893179;28;94129;-69
2024/02/05 03:35:28;;;;;;;0.00;0.00;;;9.90;99.90;9.80;99975.00;;;;4895052;28;93404;-68
2024/02/05 03:37:54;;;;;;;0.00;0.00;;;9.90;99.90;9.80;99975.00;;;;4895996;28;92918;-69
2024/02/05 03:40:21;;;;;;;0.00;0.00;;;9.90;99.90;9.80;99967.00;;;;4892298;28;111882;-69
2024/02/05 03:42:48;;;;;;;0.00;0.00;;;10.50;99.90;9.90;99989.00;;;;4896168;28;92817;-70
2024/02/05 03:45:14;;;;;;;0.00;0.00;;;10.00;99.90;9.80;99973.00;;;;4896872;28;92745;-68
2024/02/05 03:47:39;;;;;;;0.00;0.00;;;10.00;99.90;9.80;99989.00;;;;4894834;28;93414;-68
2024/02/05 03:50:10;;;;;;;0.00;0.00;;;9.60;99.90;9.80;100003.00;;;;4905907;28;120260;-68
2024/02/05 03:52:39;;;;;;;0.00;0.00;;;10.00;99.90;9.80;99992.00;;;;4895652;28;93059;-67
2024/02/05 03:55:06;;;;;;;0.00;0.00;;;9.90;99.90;9.80;99989.00;;;;4877235;28;93469;-68
2024/02/05 03:57:32;;;;;;;0.00;0.00;;;9.90;99.90;9.80;99984.00;;;;4895082;28;115994;-68
2024/02/05 04:00:01;;;;;;;0.00;0.00;;;9.90;99.90;9.80;99988.00;;;;4897072;28;93685;-69
2024/02/05 04:02:27;;;;;;;0.00;0.00;;;9.90;99.90;9.80;100004.00;;;;4895366;28;93021;-68
2024/02/05 04:04:55;;;;;;;0.00;0.00;;;9.90;99.90;9.80;99990.00;;;;4908033;28;92970;-67
2024/02/05 04:07:20;;;;;;;0.00;0.00;;;9.90;99.90;9.80;99992.00;;;;4894221;28;94050;-68
2024/02/05 04:09:46;;;;;;;0.00;0.00;;;9.60;99.90;9.80;100000.00;;;;4890940;28;123411;-68
2024/02/05 04:12:12;;;;;;;0.00;0.00;;;9.90;99.90;9.80;99995.00;;;;4893407;28;109811;-67
2024/02/05 04:14:38;;;;;;;0.00;0.00;;;9.90;99.90;9.80;100008.00;;;;4896151;28;92053;-69
2024/02/05 04:17:03;;;;;;;0.00;0.00;;;9.90;99.90;9.80;99999.00;;;;4894714;28;92855;-68
2024/02/05 04:19:29;;;;;;;0.10;0.10;;;9.80;99.90;9.80;99994.00;;;;4896023;28;93230;-67
2024/02/05 04:21:54;;;;;;;0.03;0.03;;;9.80;99.90;9.80;99993.00;;;;4896589;28;110544;-68
2024/02/05 04:24:20;;;;;;;0.00;0.00;;;9.90;99.90;9.80;99983.00;;;;4895747;28;111853;-68
2024/02/05 04:26:46;;;;;;;0.00;0.00;;;9.90;99.90;9.80;99994.00;;;;4889883;28;122378;-67
2024/02/05 04:29:20;;;;;;;0.00;0.00;;;9.90;99.90;9.80;100013.00;;;;4897845;28;122680;-67
2024/02/05 04:31:47;;;;;;;0.00;0.00;;;9.90;99.90;9.80;100011.00;;;;4897029;28;92763;-68
2024/02/05 04:34:13;;;;;;;0.00;0.00;;;9.90;99.90;9.80;100013.00;;;;4897498;28;93237;-69
2024/02/05 04:36:39;;;;;;;0.00;0.00;;;9.80;99.90;9.80;100005.00;;;;4893360;28;93722;-69
2024/02/05 04:39:09;;;;;;;0.00;0.00;;;9.80;99.90;9.80;100002.00;;;;4893196;28;121708;-70
2024/02/05 04:41:34;;;;;;;0.00;0.00;;;9.90;99.90;9.80;100023.00;;;;4898456;28;93233;-68
2024/02/05 04:44:00;;;;;;;0.00;0.00;;;9.80;99.90;9.80;100007.00;;;;4891013;28;109110;-68
2024/02/05 04:46:26;;;;;;;0.00;0.00;;;9.80;99.90;9.80;100008.00;;;;4894115;28;125898;-68
2024/02/05 04:48:51;;;;;;;0.00;0.00;;;9.90;99.90;9.80;100024.00;;;;4896403;28;122691;-67
2024/02/05 04:51:17;;;;;;;0.00;0.00;;;9.90;99.90;9.80;100026.00;;;;4895467;28;95509;-69
2024/02/05 04:53:43;;;;;;;0.00;0.00;;;9.90;99.90;9.80;100018.00;;;;4897597;28;109044;-70
2024/02/05 04:56:08;;;;;;;0.00;0.00;;;9.90;99.90;9.80;100044.00;;;;4898070;28;121616;-68
2024/02/05 04:58:34;;;;;;;0.00;0.00;;;9.90;99.90;9.80;100035.00;;;;4894546;28;93702;-68
2024/02/05 05:01:00;;;;;;;0.00;0.00;;;9.90;99.90;9.80;100037.00;;;;4892554;28;110238;-68
2024/02/05 05:03:25;;;;;;;0.00;0.00;;;9.90;99.90;9.80;100030.00;;;;4890240;28;105210;-69
2024/02/05 05:05:51;;;;;;;0.00;0.00;;;9.90;99.90;9.80;100044.00;;;;4895192;28;93278;-69
2024/02/05 05:08:17;;;;;;;0.00;0.00;;;9.80;99.90;9.80;100035.00;;;;4890120;28;129221;-69
2024/02/05 05:10:42;;;;;;;0.00;0.00;;;9.90;99.90;9.90;100029.00;;;;4895450;28;110456;-67
2024/02/05 05:13:08;;;;;;;0.00;0.00;;;10.00;99.90;9.80;100037.00;;;;4894199;28;108501;-68
2024/02/05 05:15:34;;;;;;;0.00;0.00;;;9.90;99.90;9.80;100041.00;;;;4896394;28;93474;-68
2024/02/05 05:17:59;;;;;;;0.00;0.00;;;10.00;99.90;9.80;99988.00;;;;4895247;28;122946;-70
2024/02/05 05:20:25;;;;;;;0.00;0.00;;;9.90;99.90;9.80;100042.00;;;;4893729;28;109881;-69
2024/02/05 05:22:51;;;;;;;0.00;0.00;;;9.90;99.90;9.80;100038.00;;;;4894005;28;92971;-68
2024/02/05 05:25:16;;;;;;;0.00;0.00;;;9.90;99.90;9.90;100018.00;;;;4895809;28;123609;-70
2024/02/05 05:27:42;;;;;;;0.00;0.00;;;9.90;99.90;9.80;100036.00;;;;4891553;28;123974;-69
2024/02/05 05:30:09;;;;;;;0.00;0.00;;;9.90;99.90;9.80;100024.00;;;;4892953;28;92959;-68
2024/02/05 05:32:34;;;;;;;0.00;0.00;;;9.90;99.90;9.80;100044.00;;;;4896719;28;92936;-71
2024/02/05 05:35:00;;;;;;;0.00;0.00;;;9.90;99.90;9.80;100031.00;;;;4890669;28;124051;-69
2024/02/05 05:37:26;;;;;;;0.00;0.00;;;9.90;99.90;9.80;100031.00;;;;4894428;28;121421;-69
2024/02/05 05:39:51;;;;;;;0.10;0.10;;;9.90;99.90;9.80;100040.00;;;;4904102;28;109449;-68
2024/02/05 05:42:18;;;;;;;0.00;0.00;;;9.90;99.90;9.80;100037.00;;;;4895982;28;108169;-69
2024/02/05 05:44:44;;;;;;;0.00;0.00;;;10.00;99.90;9.80;100008.00;;;;4891644;28;93782;-68
2024/02/05 05:47:10;;;;;;;0.00;0.00;;;9.90;99.90;9.80;100032.00;;;;4893940;28;102677;-69
2024/02/05 05:49:35;;;;;;;0.00;0.00;;;9.90;99.90;9.80;100030.00;;;;4891296;28;109556;-68
2024/02/05 05:52:01;;;;;;;0.00;0.00;;;9.90;99.90;9.80;100048.00;;;;4892315;28;108785;-68
2024/02/05 05:54:27;;;;;;;0.00;0.00;;;9.90;99.90;9.80;100041.00;;;;4895987;28;122373;-69
2024/02/05 05:56:52;;;;;;;0.00;0.00;;;9.90;99.90;9.80;100042.00;;;;4893542;28;122414;-68
2024/02/05 05:59:21;;;;;;;0.00;0.00;;;9.90;99.90;9.80;100055.00;;;;4894213;28;109247;-66
2024/02/05 06:01:47;;;;;;;0.00;0.00;;;9.90;99.90;9.80;100053.00;;;;4894097;28;109656;-66
2024/02/05 06:04:13;;;;;;;0.00;0.00;;;9.90;99.90;9.80;100044.00;;;;4905804;28;123546;-68
2024/02/05 06:06:39;;;;;;;0.00;0.00;;;9.80;99.90;9.80;100055.00;;;;4893102;28;119221;-69
2024/02/05 06:09:05;;;;;;;0.13;0.13;;;9.90;99.90;9.80;100042.00;;;;4895986;28;92833;-67
2024/02/05 06:11:32;;;;;;;0.00;0.00;;;9.90;99.90;9.80;100053.00;;;;4893722;28;93003;-68
2024/02/05 06:13:58;;;;;;;0.00;0.00;;;9.90;99.90;9.80;100055.00;;;;4893475;28;113084;-68
2024/02/05 06:16:24;;;;;;;0.00;0.00;;;9.90;99.90;9.80;100040.00;;;;4894382;28;122711;-70
2024/02/05 06:18:50;;;;;;;0.00;0.00;;;9.90;99.90;9.80;100042.00;;;;4907885;28;93314;-67
2024/02/05 06:21:17;;;;;;;0.00;0.00;;;9.90;99.90;9.80;100037.00;;;;4892991;28;93707;-68
2024/02/05 06:23:43;;;;;;;0.00;0.00;;;9.90;99.90;9.90;100066.00;;;;4893485;28;94608;-68
2024/02/05 06:26:10;;;;;;;0.00;0.00;;;9.90;99.90;9.80;100043.00;;;;4894970;28;122224;-67
2024/02/05 06:28:37;;;;;;;0.00;0.00;;;9.90;99.90;9.90;100056.00;;;;4894362;28;93599;-67
2024/02/05 06:31:03;;;;;;;0.00;0.00;;;9.90;99.90;9.80;100062.00;;;;4897292;28;92881;-66
2024/02/05 06:33:31;;;;;;;0.00;0.00;;;9.90;99.90;9.80;100064.00;;;;4893837;28;123549;-67
2024/02/05 06:35:57;;;;;;;0.00;0.00;;;10.00;99.90;9.80;100060.00;;;;4897091;28;93842;-67
2024/02/05 06:38:23;;;;;;;0.00;0.00;;;9.30;99.90;9.80;100078.00;;;;4898856;28;93014;-67
2024/02/05 06:40:50;;;;;;;0.00;0.00;;;9.90;99.90;9.80;100073.00;;;;4896696;28;108233;-68
2024/02/05 06:43:16;;;;;;;0.10;0.10;;;9.90;99.90;9.80;100062.00;;;;4898459;28;112337;-67
2024/02/05 06:45:41;;;;;;;0.00;0.00;;;9.90;99.90;9.80;100064.00;;;;4896729;28;93208;-69
2024/02/05 06:48:07;;;;;;;0.00;0.00;;;9.90;99.90;9.80;100080.00;;;;4894887;28;110147;-69
2024/02/05 06:50:33;;;;;;;0.00;0.00;;;9.90;99.90;9.80;100061.00;;;;4896366;28;108106;-68
2024/02/05 06:53:02;;;;;;;0.00;0.00;;;9.90;99.90;9.80;100073.00;;;;4901562;28;93354;-68
2024/02/05 06:55:28;;;;;;;0.00;0.00;;;9.90;99.90;9.80;100084.00;;;;4897487;28;93883;-67
2024/02/05 06:57:54;;;;;;;0.00;0.00;;;9.90;99.90;9.80;100076.00;;;;4898589;28;93088;-67
2024/02/05 07:00:19;;;;;;;0.00;0.00;;;9.90;99.90;9.80;100077.00;;;;4900150;28;93965;-69
2024/02/05 07:02:45;;;;;;;0.47;0.47;;;9.90;99.90;9.80;100087.00;;;;4910941;28;102378;-69
2024/02/05 07:05:11;;;;;;;0.00;0.00;;;10.20;99.90;9.80;100086.00;;;;4889162;28;122913;-68
2024/02/05 07:07:37;;;;;;;0.00;0.00;;;10.30;99.90;9.80;100108.00;;;;4896523;28;92940;-69
2024/02/05 07:10:05;;;;;;;0.00;0.00;;;9.90;99.90;9.80;100081.00;;;;4894261;28;109894;-68
2024/02/05 07:12:30;;;;;;;0.00;0.00;;;10.00;99.90;9.90;100107.00;;;;4892819;28;93876;-69
2024/02/05 07:14:56;;;;;;;0.00;0.00;;;9.90;99.90;9.80;100117.00;;;;4894066;28;122277;-68
2024/02/05 07:17:31;;;;;;;0.00;0.00;;;9.90;99.90;9.80;100112.00;;;;4892853;28;110854;-68
2024/02/05 07:20:01;;;;;;;0.00;0.00;;;9.90;99.90;9.90;100105.00;;;;4896720;28;93048;-69
2024/02/05 07:22:28;;;;;;;0.73;0.73;;;10.00;99.90;9.80;100119.00;;;;4900272;28;93087;-68
2024/02/05 07:24:54;;;;;;;0.00;0.00;;;9.80;99.90;9.80;100110.00;;;;4901129;28;93776;-67
2024/02/05 07:27:24;;;;;;;0.00;0.00;;;9.90;99.90;9.90;100114.00;;;;4897214;28;93196;-67
2024/02/05 07:29:49;;;;;;;0.00;0.00;;;10.00;99.90;9.90;100094.00;;;;4896360;28;92312;-68
2024/02/05 07:32:15;;;;;;;0.00;0.00;;;9.90;99.90;9.90;100123.00;;;;4893354;28;123136;-68
2024/02/05 07:34:41;;;;;;;0.00;0.00;;;9.90;99.90;9.90;100108.00;;;;4899181;28;94518;-67
2024/02/05 07:37:07;;;;;;;0.00;0.00;;;9.90;99.90;9.90;100106.00;;;;4897001;28;94554;-68
2024/02/05 07:39:33;;;;;;;0.00;0.00;;;9.90;99.90;9.90;100108.00;;;;4911205;28;93319;-68
2024/02/05 07:41:59;;;;;;;0.00;0.00;;;9.90;99.90;9.90;100128.00;;;;4911316;28;102190;-68
2024/02/05 07:44:25;;;;;;;0.10;0.10;;;9.90;99.90;9.90;100101.00;;;;4897693;28;93485;-69
2024/02/05 07:46:52;;;;;;;0.37;0.37;;;10.00;99.90;9.90;100118.00;;;;4916467;28;93099;-70
2024/02/05 07:49:19;;;;;;;0.00;0.00;;;10.30;99.90;9.90;100120.00;;;;4899232;28;92752;-68
2024/02/05 07:51:46;;;;;;;0.00;0.00;;;10.00;99.90;9.90;100115.00;;;;4897181;28;93742;-68
2024/02/05 07:54:13;;;;;;;0.00;0.00;;;10.00;99.90;9.90;100127.00;;;;4897654;28;93853;-67
2024/02/05 07:56:41;;;;;;;0.00;0.00;;;10.00;99.90;9.90;100142.00;;;;4894338;28;97805;-69
2024/02/05 07:59:10;;;;;;;0.00;0.00;;;10.00;99.90;9.90;100134.00;;;;4905454;28;92809;-68
2024/02/05 08:01:39;;;;;;;0.00;0.00;;;10.00;99.90;9.90;100129.00;;;;4897537;28;113685;-70
2024/02/05 08:04:05;;;;;;;0.00;0.00;;;10.00;99.90;9.90;100144.00;;;;4896251;28;124392;-68
2024/02/05 08:06:32;;;;;;;0.00;0.00;;;10.00;99.90;9.90;100149.00;;;;4896437;28;110082;-67
2024/02/05 08:09:01;;;;;;;0.00;0.00;;;10.00;99.90;9.90;100130.00;;;;4894252;28;92875;-68
2024/02/05 08:11:27;;;;;;;0.00;0.00;;;10.00;99.90;9.90;100145.00;;;;4894814;28;92957;-68
2024/02/05 08:13:53;;;;;;;0.00;0.00;;;10.00;99.90;9.90;100153.00;;;;4896151;28;95038;-68
2024/02/05 08:16:19;;;;;;;0.37;0.37;;;10.10;99.90;9.90;100132.00;;;;4893892;28;93225;-68
2024/02/05 08:18:47;;;;;;;0.00;0.00;;;10.00;99.90;9.90;100132.00;;;;4892379;28;108739;-68
2024/02/05 08:21:13;;;;;;;0.00;0.00;;;10.00;99.90;9.90;100145.00;;;;4896871;28;93353;-69
2024/02/05 08:23:39;;;;;;;0.00;0.00;;;10.00;99.90;9.90;100142.00;;;;4909049;28;93212;-67
2024/02/05 08:26:05;;;;;;;0.00;0.00;;;10.00;99.90;9.90;100129.00;;;;4895253;28;93863;-69
2024/02/05 08:28:32;;;;;;;0.00;0.00;;;10.00;99.90;9.90;100135.00;;;;4910712;28;93119;-68
2024/02/05 08:30:58;;;;;;;0.00;0.00;;;10.00;99.90;9.90;100141.00;;;;4896869;28;93226;-69
2024/02/05 08:33:24;;;;;;;0.13;0.07;;;10.10;99.90;9.90;100153.00;;;;4892946;28;93022;-67
2024/02/05 08:35:53;;;;;;;0.10;0.10;;;10.10;99.90;9.90;100144.00;;;;4899341;28;101284;-69
2024/02/05 08:38:19;;;;;;;0.10;0.10;;;10.00;99.90;10.00;100142.00;;;;4893153;28;108509;-70
2024/02/05 08:40:45;;;;;;;0.00;0.00;;;10.00;99.90;10.00;100141.00;;;;4895687;28;121873;-68
2024/02/05 08:43:11;;;;;;;0.00;0.00;;;10.00;99.90;10.00;100140.00;;;;4894229;28;122493;-70
2024/02/05 08:45:37;;;;;;;0.00;0.00;;;10.10;99.90;10.00;100145.00;;;;4895181;28;100508;-69
2024/02/05 08:48:04;;;;;;;0.00;0.00;;;10.00;99.90;10.00;100130.00;;;;4895746;28;105794;-68
2024/02/05 08:50:36;;;;;;;0.10;0.10;;;10.10;99.90;10.00;100146.00;;;;4894757;28;94957;-68
2024/02/05 08:53:03;;;;;;;0.10;0.10;;;10.10;99.90;10.00;100143.00;;;;4895136;28;94909;-68
2024/02/05 08:55:29;;;;;;;0.00;0.00;;;10.10;99.90;10.00;100144.00;;;;4899392;28;94298;-69
2024/02/05 08:57:54;;;;;;;0.20;0.20;;;10.10;99.90;10.00;100141.00;;;;4894778;28;107129;-69
2024/02/05 09:00:21;;;;;;;0.00;0.00;;;10.10;99.90;10.00;100145.00;;;;4894648;28;123123;-69
2024/02/05 09:02:53;;;;;;;0.00;0.00;;;10.20;99.90;10.10;100146.00;;;;4893763;28;93737;-68
2024/02/05 09:05:19;;;;;;;0.00;0.00;;;10.20;99.90;10.10;100143.00;;;;4893324;28;93126;-69
2024/02/05 09:07:45;;;;;;;0.30;0.30;;;10.10;99.90;10.10;100144.00;;;;4895258;28;93350;-70
2024/02/05 09:10:11;;;;;;;0.10;0.10;;;10.20;99.90;10.10;100140.00;;;;4894640;28;114560;-69
2024/02/05 09:12:37;;;;;;;0.00;0.00;;;10.20;99.90;10.10;100134.00;;;;4877196;28;120811;-70
2024/02/05 09:15:04;;;;;;;2.13;1.73;;;10.20;99.90;10.20;100133.00;;;;4894212;28;93648;-68
2024/02/05 09:17:33;;;;;;;3.50;1.40;;;10.20;99.90;10.20;100145.00;;;;4898005;28;99910;-69
2024/02/05 09:19:58;;;;;;;4.13;2.00;;;10.30;99.90;10.20;100144.00;;;;4891583;28;110697;-70
2024/02/05 09:22:24;;;;;;;2.43;1.80;;;10.30;99.90;10.30;100155.00;;;;4893299;28;108040;-70
2024/02/05 09:24:50;;;;;;;6.50;2.03;;;10.40;99.90;10.40;100147.00;;;;4896640;28;93208;-71
2024/02/05 09:27:16;;;;;;;9.30;2.37;;;10.40;99.90;10.40;100148.00;;;;4895557;28;94195;-71
2024/02/05 09:29:41;;;;;;;3.90;1.80;;;10.50;99.90;10.50;100144.00;;;;4896455;28;122457;-71
2024/02/05 09:32:08;;;;;;;2.70;1.63;;;10.60;99.90;10.70;100146.00;;;;4910349;28;94005;-68
2024/02/05 09:34:35;;;;;;;2.17;1.40;;;10.80;99.90;10.80;100160.00;;;;4897981;28;93316;-70
2024/02/05 09:37:02;;;;;;;2.27;1.83;;;10.90;99.90;10.90;100162.00;;;;4895266;28;93482;-71
2024/02/05 09:39:28;;;;;;;4.10;1.97;;;11.00;99.90;11.00;100162.00;;;;4893178;28;94806;-70
2024/02/05 09:41:59;;;;;;;5.20;1.93;;;11.10;99.90;11.10;100169.00;;;;4893933;28;94993;-69
2024/02/05 09:44:28;;;;;;;4.17;1.83;;;11.20;99.90;11.20;100161.00;;;;4894868;28;96881;-70
2024/02/05 09:46:56;;;;;;;3.57;2.10;;;11.30;99.90;11.30;100164.00;;;;4890756;28;93365;-68
2024/02/05 09:49:22;;;;;;;2.57;2.03;;;11.30;99.90;11.30;100164.00;;;;4893333;28;93295;-68
2024/02/05 09:51:48;;;;;;;3.87;2.20;;;11.40;99.90;11.40;100170.00;;;;4897811;28;92852;-69
2024/02/05 09:54:15;;;;;;;8.33;2.90;;;11.40;99.90;11.40;100168.00;;;;4895893;28;92727;-69
2024/02/05 09:56:42;;;;;;;3.00;1.93;;;11.50;99.90;11.50;100180.00;;;;4894591;28;92270;-68
2024/02/05 09:59:09;;;;;;;3.33;1.47;;;11.50;99.90;11.50;100187.00;;;;4907717;28;95668;-68
2024/02/05 10:01:36;;;;;;;2.90;1.13;;;11.50;99.90;11.50;100177.00;;;;4908153;28;93144;-67
2024/02/05 10:04:06;;;;;;;5.43;1.90;;;11.70;99.90;11.50;100188.00;;;;4886328;28;93908;-68
2024/02/05 10:06:33;;;;;;;2.73;1.97;;;12.00;99.90;11.50;100183.00;;;;4892709;28;93143;-68
2024/02/05 10:09:04;;;;;;;4.57;2.43;;;11.60;99.90;11.50;100185.00;;;;4894193;28;93478;-69
2024/02/05 10:11:33;;;;;;;6.40;1.83;;;11.60;99.90;11.50;100202.00;;;;4894687;28;109700;-67
2024/02/05 10:13:59;;;;;;;4.77;1.83;;;11.60;99.90;11.50;100204.00;;;;4899196;28;97006;-68
2024/02/05 10:16:25;;;;;;;5.03;1.83;;;11.60;99.90;11.50;100204.00;;;;4895776;28;93030;-68
2024/02/05 10:18:50;;;;;;;12.80;2.70;;;11.60;99.90;11.50;100210.00;;;;4895005;28;123036;-67
2024/02/05 10:21:19;;;;;;;7.60;2.37;;;11.60;99.90;11.50;100173.00;;;;4899073;28;122884;-69
2024/02/05 10:23:55;;;;;;;3.37;2.43;;;11.60;99.90;11.40;100192.00;;;;4893599;28;110568;-69
2024/02/05 10:26:23;;;;;;;3.73;2.50;;;11.50;99.90;11.30;100197.00;;;;4888351;28;107779;-70
2024/02/05 10:28:49;;;;;;;8.50;2.53;;;11.50;99.90;11.30;100194.00;;;;4899747;28;95030;-67
2024/02/05 10:31:16;;;;;;;4.60;1.70;;;11.40;99.90;11.30;100191.00;;;;4897805;28;114120;-70
2024/02/05 10:33:44;;;;;;;4.97;2.83;;;11.30;99.90;11.30;100184.00;;;;4895088;28;93189;-67
2024/02/05 10:36:16;;;;;;;9.17;1.90;;;11.40;99.90;11.40;100186.00;;;;4896250;28;108859;-67
2024/02/05 10:38:42;;;;;;;9.57;2.73;;;11.40;99.90;11.40;100176.00;;;;4898648;28;93099;-68
2024/02/05 10:41:11;;;;;;;5.63;2.00;;;11.50;99.90;11.50;100181.00;;;;4898721;28;93075;-69
2024/02/05 10:43:43;;;;;;;11.47;2.57;;;11.50;99.90;11.50;100186.00;;;;4896841;28;110160;-68
2024/02/05 10:46:09;;;;;;;3.07;1.70;;;11.60;99.90;11.70;100183.00;;;;4896818;28;92085;-71
2024/02/05 10:48:35;;;;;;;7.37;2.40;;;11.70;99.90;11.80;100173.00;;;;4896464;28;111976;-68
2024/02/05 10:51:00;;;;;;;8.40;2.10;;;11.80;99.90;11.80;100180.00;;;;4901492;28;123005;-68
2024/02/05 10:53:27;;;;;;;3.53;1.97;;;11.90;99.90;11.90;100175.00;;;;4895303;28;101928;-67
2024/02/05 10:55:56;;;;;;;7.43;2.30;;;11.90;99.90;11.90;100162.00;;;;4911961;28;93106;-68